1K1

Lloyd Stearman Field Airport

Benton, Kansas, USA
METAR K1K1 232235Z AUTO 03005KT 10SM SCT065 22/05 A3003 RMK AO2 T02170054
Observed Flight Rules
Apr-23 @ 22:35 UTC (16 minutes ago) Visual Flight Rules
Wind Visibility Clouds
30° at 5 knots 10 miles
  • Scattered at 6,500' AGL
Temperatures Readings
Current 22°C / 72°F
Dewpoint 5°C / 41°F
Humidity 33%
Altimeter 30.03" Hg
Pressure 1017 hPa
Elevation 416
METAR K1K1 232235Z AUTO 03005KT 10SM SCT065 22/05 A3003 RMK AO2 T02170054
Observed Flight Rules
Apr-23 @ 22:35 UTC
(16 minutes ago)
VFR
Wind Visibility
30° at 5 knots 10 miles
Clouds
  • Scattered at 6,500' AGL
Temperature Dewpoint
22°C / 72°F 5°C / 41°F
Humidity Altimeter Pressure
33% 30.03" Hg 1017 hPa